Time;durP1;ratioP1;P1;durP2;ratioP2;P2;SDS_P1;SDS_P2;PMS_P1;PMS_P2;Temp;Humidity;BMP_temperature;BMP_pressure;BME280_temperature;BME280_humidity;BME280_pressure;Samples;Min_cycle;Max_cycle;Signal;HPM_P1;HPM_P2
2023/08/13 00:01:07;;;;;;;2.97;0.32;;;17.30;99.90;;;;;;5031869;28;20079;-75
2023/08/13 00:03:33;;;;;;;4.93;0.20;;;17.30;99.90;;;;;;5033181;28;20362;-75
2023/08/13 00:05:58;;;;;;;6.38;0.63;;;17.30;99.90;;;;;;5033193;28;20113;-75
2023/08/13 00:08:24;;;;;;;6.13;0.30;;;17.20;99.90;;;;;;5033137;28;20034;-75
2023/08/13 00:10:49;;;;;;;6.25;0.68;;;17.20;99.90;;;;;;5033191;28;20045;-75
2023/08/13 00:13:16;;;;;;;9.02;0.80;;;17.20;99.90;;;;;;5033902;28;20056;-74
2023/08/13 00:15:41;;;;;;;14.25;0.82;;;17.20;99.90;;;;;;5037232;28;20053;-74
2023/08/13 00:18:07;;;;;;;8.27;0.95;;;17.20;99.90;;;;;;5037654;28;20061;-74
2023/08/13 00:20:33;;;;;;;10.00;0.88;;;17.10;99.90;;;;;;5037108;28;20541;-75
2023/08/13 00:22:58;;;;;;;4.03;0.30;;;17.10;99.90;;;;;;5036928;28;20025;-75
2023/08/13 00:25:24;;;;;;;8.73;0.65;;;17.20;99.90;;;;;;5036972;28;20025;-75
2023/08/13 00:27:49;;;;;;;5.55;0.70;;;17.20;99.90;;;;;;5037577;28;20022;-74
2023/08/13 00:30:15;;;;;;;6.55;0.15;;;17.20;99.90;;;;;;5036925;28;20033;-74
2023/08/13 00:32:40;;;;;;;6.65;0.30;;;17.20;99.90;;;;;;5036947;28;20080;-74
2023/08/13 00:35:06;;;;;;;8.68;0.50;;;17.20;99.90;;;;;;5035559;28;20017;-74
2023/08/13 00:37:35;;;;;;;10.57;0.30;;;17.20;99.90;;;;;;5037343;28;20029;-74
2023/08/13 00:40:01;;;;;;;3.97;0.30;;;17.10;99.90;;;;;;5036776;28;20116;-74
2023/08/13 00:42:26;;;;;;;9.18;0.40;;;17.10;99.90;;;;;;5037211;28;20045;-74
2023/08/13 00:44:52;;;;;;;4.90;0.40;;;17.10;99.90;;;;;;5037218;28;20017;-74
2023/08/13 00:47:21;;;;;;;5.70;0.50;;;17.20;99.90;;;;;;5036605;28;20112;-74
2023/08/13 00:49:48;;;;;;;6.03;0.65;;;17.20;99.90;;;;;;5036628;28;20021;-74
2023/08/13 00:52:13;;;;;;;5.20;0.65;;;17.20;99.90;;;;;;5036484;28;20362;-75
2023/08/13 00:54:40;;;;;;;3.83;0.25;;;17.20;99.90;;;;;;5036486;28;20029;-74
2023/08/13 00:57:06;;;;;;;5.53;0.35;;;17.20;99.90;;;;;;5036390;28;20037;-74
2023/08/13 00:59:33;;;;;;;7.50;0.75;;;17.20;99.90;;;;;;5036394;28;20056;-75
2023/08/13 01:01:59;;;;;;;6.03;0.20;;;17.20;99.90;;;;;;5036359;28;20029;-75
2023/08/13 01:04:24;;;;;;;4.40;0.60;;;17.10;99.90;;;;;;5036248;28;20032;-75
2023/08/13 01:06:50;;;;;;;6.07;0.82;;;17.10;99.90;;;;;;5036340;28;20083;-75
2023/08/13 01:09:30;;;;;;;8.90;0.63;;;17.10;99.90;;;;;;5035046;28;20511;-75
2023/08/13 01:12:11;;;;;;;5.57;0.28;;;17.10;99.90;;;;;;5038446;28;20081;-78
2023/08/13 01:14:40;;;;;;;4.63;0.20;;;17.10;99.90;;;;;;5040667;28;20022;-78
2023/08/13 01:17:07;;;;;;;5.50;0.10;;;17.00;99.90;;;;;;5040371;28;20025;-77
2023/08/13 01:19:33;;;;;;;5.43;0.88;;;17.00;99.90;;;;;;5041321;28;20075;-78
2023/08/13 01:21:58;;;;;;;7.05;0.45;;;17.00;99.90;;;;;;5040381;28;20116;-77
2023/08/13 01:24:24;;;;;;;8.15;1.05;;;17.00;99.90;;;;;;5040461;28;20479;-78
2023/08/13 01:27:00;;;;;;;6.43;0.65;;;17.00;99.90;;;;;;5042714;28;20076;-78
2023/08/13 01:29:53;;;;;;;2.08;0.20;;;17.40;99.90;;;;;;5043224;28;20026;-78
2023/08/13 01:32:24;;;;;;;5.57;0.20;;;16.90;99.90;;;;;;5042535;28;20037;-76
2023/08/13 01:34:51;;;;;;;5.68;0.75;;;17.20;99.90;;;;;;5042037;28;20121;-78
2023/08/13 01:37:18;;;;;;;6.03;0.25;;;16.90;99.90;;;;;;5040730;28;20025;-78
2023/08/13 01:39:44;;;;;;;3.80;0.38;;;17.60;99.90;;;;;;5040547;28;20025;-79
2023/08/13 01:42:11;;;;;;;3.50;0.43;;;17.00;99.90;;;;;;5040400;28;20493;-78
2023/08/13 01:44:37;;;;;;;8.50;0.52;;;18.80;99.90;;;;;;5041277;28;20071;-78
2023/08/13 01:47:04;;;;;;;14.98;0.80;;;17.70;99.90;;;;;;5039104;28;20018;-79
2023/08/13 01:49:31;;;;;;;6.50;0.75;;;16.80;99.90;;;;;;5038171;28;20014;-78
2023/08/13 01:51:57;;;;;;;7.40;0.80;;;16.80;99.90;;;;;;5038236;28;20033;-78
2023/08/13 01:54:22;;;;;;;7.13;0.45;;;18.60;99.90;;;;;;5040386;28;20033;-78
2023/08/13 01:56:48;;;;;;;8.95;0.73;;;16.70;99.90;;;;;;5040260;28;20408;-78
2023/08/13 01:59:14;;;;;;;4.10;0.20;;;17.70;99.90;;;;;;5038779;28;20029;-78
2023/08/13 02:01:39;;;;;;;2.13;0.50;;;16.70;99.90;;;;;;5042054;28;20026;-78
2023/08/13 02:04:05;;;;;;;6.63;0.95;;;16.70;99.90;;;;;;5039789;28;20511;-77
2023/08/13 02:06:33;;;;;;;9.15;1.17;;;16.70;99.90;;;;;;5040001;28;20029;-77
2023/08/13 02:08:59;;;;;;;4.10;0.43;;;16.70;99.90;;;;;;5037004;28;20021;-78
2023/08/13 02:11:25;;;;;;;7.40;1.17;;;16.60;99.90;;;;;;5041292;28;20037;-78
2023/08/13 02:13:50;;;;;;;6.18;0.40;;;16.70;99.90;;;;;;5040890;28;20025;-78
2023/08/13 02:16:16;;;;;;;4.30;0.40;;;16.70;99.90;;;;;;5042324;28;20029;-78
2023/08/13 02:18:41;;;;;;;5.05;0.70;;;18.40;99.90;;;;;;5039112;28;20028;-76
2023/08/13 02:21:07;;;;;;;2.60;0.55;;;16.70;99.90;;;;;;5039788;28;20030;-77
2023/08/13 02:23:33;;;;;;;3.83;0.55;;;16.60;99.90;;;;;;5042012;28;20022;-77
2023/08/13 02:25:58;;;;;;;5.03;0.73;;;16.60;99.90;;;;;;5039844;28;20366;-79
2023/08/13 02:28:24;;;;;;;4.20;0.50;;;16.60;99.90;;;;;;5039787;28;20032;-78
2023/08/13 02:30:50;;;;;;;8.13;1.23;;;16.50;99.90;;;;;;5040589;28;20025;-78
2023/08/13 02:33:16;;;;;;;3.25;0.38;;;16.50;99.90;;;;;;5037415;28;20030;-77
2023/08/13 02:35:41;;;;;;;7.07;0.43;;;16.40;99.90;;;;;;5037428;28;20407;-78
2023/08/13 02:38:07;;;;;;;8.73;0.80;;;16.40;99.90;;;;;;5040135;28;20036;-78
2023/08/13 02:40:33;;;;;;;2.90;0.43;;;16.50;99.90;;;;;;5040570;28;20041;-78
2023/08/13 02:42:58;;;;;;;3.65;0.75;;;16.50;99.90;;;;;;5040837;28;20041;-78
2023/08/13 02:45:24;;;;;;;7.90;0.73;;;16.50;99.90;;;;;;5041992;28;20021;-78
2023/08/13 02:47:50;;;;;;;19.10;1.75;;;16.40;99.90;;;;;;5041650;28;20370;-78
2023/08/13 02:50:15;;;;;;;5.63;1.23;;;16.40;99.90;;;;;;5041003;28;20030;-78
2023/08/13 02:52:41;;;;;;;5.82;1.52;;;16.30;99.90;;;;;;5037672;28;20025;-77
2023/08/13 02:55:06;;;;;;;5.85;0.35;;;16.30;99.90;;;;;;5036675;28;20101;-78
2023/08/13 02:57:32;;;;;;;13.00;1.08;;;16.30;99.90;;;;;;5036619;28;20056;-78
2023/08/13 02:59:58;;;;;;;4.65;0.47;;;16.30;99.90;;;;;;5036301;28;20055;-78
2023/08/13 03:02:23;;;;;;;4.88;0.22;;;16.30;99.90;;;;;;5040241;28;20028;-78
2023/08/13 03:04:49;;;;;;;2.50;0.30;;;17.40;99.90;;;;;;5039691;28;20024;-77
2023/08/13 03:07:14;;;;;;;5.13;0.52;;;17.10;99.90;;;;;;5038534;28;20029;-79
2023/08/13 03:09:40;;;;;;;3.55;0.40;;;16.30;99.90;;;;;;5035457;28;20032;-77
2023/08/13 03:12:07;;;;;;;4.15;0.50;;;16.20;99.90;;;;;;5035716;28;20022;-78
2023/08/13 03:14:33;;;;;;;10.35;0.75;;;16.20;99.90;;;;;;5035358;28;20029;-77
2023/08/13 03:16:58;;;;;;;6.15;0.28;;;16.10;99.90;;;;;;5036290;28;20024;-77
2023/08/13 03:19:24;;;;;;;9.48;0.50;;;16.70;99.90;;;;;;5036113;28;20026;-78
2023/08/13 03:21:49;;;;;;;3.53;0.40;;;16.40;99.90;;;;;;5035911;28;20014;-77
2023/08/13 03:24:15;;;;;;;4.53;0.45;;;16.10;99.90;;;;;;5034515;28;20079;-78
2023/08/13 03:26:40;;;;;;;10.25;0.75;;;16.10;99.90;;;;;;5034431;28;20079;-78
2023/08/13 03:29:06;;;;;;;7.57;0.95;;;16.10;99.90;;;;;;5034146;28;20085;-78
2023/08/13 03:31:32;;;;;;;5.15;0.70;;;16.10;99.90;;;;;;5033767;28;20082;-77
2023/08/13 03:33:57;;;;;;;7.22;0.95;;;16.00;99.90;;;;;;5035013;28;20030;-78
2023/08/13 03:36:23;;;;;;;5.70;0.40;;;16.10;99.90;;;;;;5033442;28;20064;-78
2023/08/13 03:38:48;;;;;;;2.88;0.50;;;15.90;99.90;;;;;;5035160;28;20025;-77
2023/08/13 03:41:14;;;;;;;5.05;0.30;;;15.90;99.90;;;;;;5034874;28;20085;-77
2023/08/13 03:43:39;;;;;;;5.85;0.80;;;15.90;99.90;;;;;;5035561;28;20076;-77
2023/08/13 03:46:05;;;;;;;5.60;0.65;;;15.90;99.90;;;;;;5034133;28;20041;-78
2023/08/13 03:48:30;;;;;;;9.60;1.25;;;15.80;99.90;;;;;;5038120;28;20090;-78
2023/08/13 03:50:56;;;;;;;2.53;0.20;;;15.80;99.90;;;;;;5039609;28;20485;-78
2023/08/13 03:53:24;;;;;;;9.07;0.60;;;15.90;99.90;;;;;;5039123;28;20018;-78
2023/08/13 03:55:50;;;;;;;18.50;1.23;;;15.80;99.90;;;;;;5040699;28;20017;-78
2023/08/13 03:58:16;;;;;;;4.22;0.35;;;15.80;99.90;;;;;;5038766;28;20034;-78
2023/08/13 04:00:42;;;;;;;8.05;0.63;;;17.40;99.90;;;;;;5037796;28;20025;-78
2023/08/13 04:03:09;;;;;;;9.02;0.77;;;15.80;99.90;;;;;;5038830;28;20017;-78
2023/08/13 04:05:35;;;;;;;8.77;0.70;;;18.20;99.90;;;;;;5040184;28;20021;-78
2023/08/13 04:08:00;;;;;;;4.28;0.52;;;15.80;99.90;;;;;;5038121;28;20025;-78
2023/08/13 04:10:26;;;;;;;19.98;0.82;;;15.80;99.90;;;;;;5039519;28;20022;-79
2023/08/13 04:12:52;;;;;;;5.82;0.85;;;15.70;99.90;;;;;;5040636;28;20477;-78
2023/08/13 04:15:18;;;;;;;9.30;0.20;;;15.70;99.90;;;;;;5038753;28;20025;-78
2023/08/13 04:17:44;;;;;;;3.15;0.38;;;16.20;99.90;;;;;;5040022;28;20025;-78
2023/08/13 04:20:10;;;;;;;6.00;0.17;;;15.70;99.90;;;;;;5039608;28;20034;-79
2023/08/13 04:22:36;;;;;;;4.03;0.68;;;15.70;99.90;;;;;;5035851;28;20447;-77
2023/08/13 04:25:02;;;;;;;6.03;0.20;;;16.20;99.90;;;;;;5040461;28;20021;-79
2023/08/13 04:27:27;;;;;;;4.85;0.15;;;15.60;99.90;;;;;;5038630;28;20029;-78
2023/08/13 04:29:53;;;;;;;8.20;0.60;;;15.90;99.90;;;;;;5040536;28;20021;-78
2023/08/13 04:32:18;;;;;;;3.92;0.10;;;15.60;99.90;;;;;;5039310;28;20051;-78
2023/08/13 04:34:44;;;;;;;5.00;0.65;;;16.20;99.90;;;;;;5037945;28;20053;-78
2023/08/13 04:37:09;;;;;;;3.72;0.30;;;17.30;99.90;;;;;;5039551;28;20040;-78
2023/08/13 04:39:35;;;;;;;5.93;0.73;;;16.50;99.90;;;;;;5038959;28;20026;-78
2023/08/13 04:42:01;;;;;;;10.60;0.45;;;16.00;99.90;;;;;;5038369;28;20049;-78
2023/08/13 04:44:26;;;;;;;7.45;0.40;;;17.20;99.90;;;;;;5039263;28;20033;-78
2023/08/13 04:46:52;;;;;;;8.82;0.80;;;15.70;99.90;;;;;;5038790;28;20022;-78
2023/08/13 04:49:18;;;;;;;8.98;0.70;;;15.70;99.90;;;;;;5039680;28;20034;-78
2023/08/13 04:51:43;;;;;;;4.90;0.60;;;16.50;99.90;;;;;;5039739;28;20044;-78
2023/08/13 04:54:09;;;;;;;2.92;0.30;;;15.80;99.90;;;;;;5039274;28;20021;-78
2023/08/13 04:56:35;;;;;;;5.25;0.75;;;15.80;99.90;;;;;;5039092;28;20075;-78
2023/08/13 04:59:01;;;;;;;5.93;0.25;;;15.90;99.90;;;;;;5038523;28;20033;-77
2023/08/13 05:01:26;;;;;;;9.85;0.85;;;16.00;99.90;;;;;;5041320;28;20033;-77
2023/08/13 05:03:52;;;;;;;5.50;0.70;;;16.00;99.90;;;;;;5041378;28;20018;-78
2023/08/13 05:06:17;;;;;;;4.32;0.43;;;16.00;99.90;;;;;;5042855;28;20022;-78
2023/08/13 05:08:43;;;;;;;11.25;1.13;;;16.10;99.90;;;;;;5042167;28;20045;-78
2023/08/13 05:11:08;;;;;;;5.85;0.40;;;16.10;99.90;;;;;;5041866;28;20074;-77
2023/08/13 05:13:34;;;;;;;10.57;0.30;;;16.60;99.90;;;;;;5042505;28;20018;-77
2023/08/13 05:15:59;;;;;;;5.55;0.38;;;16.20;99.90;;;;;;5041228;28;20041;-78
2023/08/13 05:18:25;;;;;;;7.30;0.63;;;18.80;99.90;;;;;;5039313;28;20025;-78
2023/08/13 05:20:51;;;;;;;5.35;1.38;;;16.30;99.90;;;;;;5040098;28;20032;-77
2023/08/13 05:23:17;;;;;;;5.40;0.22;;;16.20;99.90;;;;;;5039473;28;20127;-77
2023/08/13 05:25:42;;;;;;;6.88;0.90;;;16.30;99.90;;;;;;5039539;28;20025;-78
2023/08/13 05:28:08;;;;;;;3.50;0.60;;;16.20;99.90;;;;;;5041483;28;20044;-78
2023/08/13 05:30:37;;;;;;;10.30;0.80;;;16.20;99.90;;;;;;5037260;28;20056;-78
2023/08/13 05:33:03;;;;;;;3.83;0.28;;;17.20;99.90;;;;;;5039778;28;20022;-78
2023/08/13 05:35:28;;;;;;;6.50;0.35;;;16.30;99.90;;;;;;5041982;28;20087;-78
2023/08/13 05:37:55;;;;;;;5.03;0.75;;;16.30;99.90;;;;;;5041452;28;20021;-78
2023/08/13 05:40:21;;;;;;;6.70;0.88;;;16.30;99.90;;;;;;5037310;28;20100;-78
2023/08/13 05:42:47;;;;;;;3.92;0.38;;;16.40;99.90;;;;;;5035960;28;20056;-78
2023/08/13 05:45:12;;;;;;;2.45;0.10;;;17.30;99.90;;;;;;5035611;28;20535;-77
2023/08/13 05:47:38;;;;;;;3.38;1.33;;;16.60;99.90;;;;;;5038557;28;20045;-78
2023/08/13 05:50:04;;;;;;;7.65;0.75;;;16.70;99.90;;;;;;5038423;28;20030;-78
2023/08/13 05:52:29;;;;;;;4.45;0.57;;;16.90;99.90;;;;;;5038718;28;20025;-78
2023/08/13 05:54:55;;;;;;;4.53;0.17;;;17.00;99.90;;;;;;5037320;28;20079;-78
2023/08/13 05:57:21;;;;;;;3.25;0.28;;;17.10;99.90;;;;;;5036680;28;20032;-78
2023/08/13 05:59:47;;;;;;;4.13;0.20;;;17.20;99.90;;;;;;5037401;28;20038;-77
2023/08/13 06:02:13;;;;;;;8.32;1.50;;;17.60;99.90;;;;;;5037198;28;20052;-77
2023/08/13 06:04:38;;;;;;;12.30;1.25;;;17.50;99.90;;;;;;5037553;28;20021;-78
2023/08/13 06:07:04;;;;;;;13.68;1.60;;;17.50;99.90;;;;;;5037091;28;20021;-78
2023/08/13 06:09:30;;;;;;;7.90;0.50;;;17.50;99.90;;;;;;5035348;28;20499;-78
2023/08/13 06:11:56;;;;;;;2.58;0.38;;;17.60;99.90;;;;;;5036465;28;20025;-78
2023/08/13 06:14:21;;;;;;;5.15;0.50;;;18.30;99.90;;;;;;5037183;28;20155;-78
2023/08/13 06:16:47;;;;;;;7.25;0.55;;;18.00;99.90;;;;;;5036320;28;20026;-78
2023/08/13 06:19:13;;;;;;;8.10;1.08;;;17.90;99.90;;;;;;5036769;28;20036;-78
2023/08/13 06:21:38;;;;;;;6.30;0.82;;;17.90;99.90;;;;;;5036847;28;20025;-77
2023/08/13 06:24:05;;;;;;;6.63;0.55;;;18.10;99.90;;;;;;5034662;28;20030;-77
2023/08/13 06:26:31;;;;;;;5.70;0.45;;;18.20;99.90;;;;;;5034697;28;20037;-78
2023/08/13 06:28:57;;;;;;;7.53;0.93;;;18.30;99.90;;;;;;5034900;28;20396;-77
2023/08/13 06:31:23;;;;;;;3.97;0.22;;;18.40;99.90;;;;;;5034791;28;20124;-78
2023/08/13 06:33:48;;;;;;;5.90;0.75;;;18.50;99.90;;;;;;5036222;28;20030;-78
2023/08/13 06:36:14;;;;;;;4.13;0.00;;;18.30;99.90;;;;;;5037638;28;20051;-78
2023/08/13 06:38:39;;;;;;;7.63;0.73;;;18.40;99.90;;;;;;5039366;28;20388;-77
2023/08/13 06:41:06;;;;;;;4.93;0.28;;;18.40;99.90;;;;;;5038857;28;20076;-78
2023/08/13 06:43:32;;;;;;;7.07;0.40;;;18.40;99.90;;;;;;5035879;28;20415;-78
2023/08/13 06:45:59;;;;;;;10.30;0.52;;;18.50;99.90;;;;;;5034539;28;20029;-77
2023/08/13 06:48:26;;;;;;;3.33;0.35;;;18.90;99.90;;;;;;5036338;28;20014;-78
2023/08/13 06:50:55;;;;;;;5.38;0.68;;;18.50;99.90;;;;;;5035734;28;20543;-77
2023/08/13 06:53:21;;;;;;;5.68;0.32;;;18.50;99.90;;;;;;5034975;28;20497;-77
2023/08/13 06:55:47;;;;;;;6.85;0.63;;;18.60;99.90;;;;;;5035007;28;20022;-77
2023/08/13 06:58:12;;;;;;;5.93;0.28;;;18.70;99.90;;;;;;5036367;28;20017;-77
2023/08/13 07:00:39;;;;;;;5.10;0.45;;;18.70;99.90;;;;;;5034738;28;20033;-78
2023/08/13 07:03:06;;;;;;;5.68;0.43;;;18.80;99.90;;;;;;5038874;28;20025;-78
2023/08/13 07:05:31;;;;;;;5.15;0.40;;;18.80;99.90;;;;;;5037495;28;20477;-79
2023/08/13 07:07:57;;;;;;;10.18;0.57;;;18.90;99.90;;;;;;5037215;28;20035;-77
2023/08/13 07:10:22;;;;;;;1.40;0.25;;;19.60;99.90;;;;;;5037608;28;20096;-77
2023/08/13 07:12:48;;;;;;;4.93;0.03;;;19.10;99.90;;;;;;5036880;28;20075;-77
2023/08/13 07:15:13;;;;;;;7.20;0.45;;;19.20;99.90;;;;;;5035249;28;20430;-77
2023/08/13 07:17:39;;;;;;;8.45;0.57;;;19.30;99.90;;;;;;5035822;28;20087;-77
2023/08/13 07:20:09;;;;;;;4.50;0.40;;;19.50;99.90;;;;;;5037107;28;20501;-78
2023/08/13 07:22:38;;;;;;;9.43;0.10;;;19.60;99.90;;;;;;5036859;28;20466;-78
2023/08/13 07:25:05;;;;;;;7.55;0.55;;;19.70;99.90;;;;;;5037133;28;20097;-78
2023/08/13 07:27:31;;;;;;;3.05;0.20;;;19.80;99.90;;;;;;5034900;28;20022;-77
2023/08/13 07:29:56;;;;;;;3.60;0.38;;;20.20;99.90;;;;;;5038652;28;20362;-78
2023/08/13 07:32:22;;;;;;;1.95;0.17;;;20.00;99.90;;;;;;5040057;28;20499;-77
2023/08/13 07:34:47;;;;;;;5.68;0.75;;;20.10;99.90;;;;;;5035259;28;20553;-78
2023/08/13 07:37:13;;;;;;;10.50;0.68;;;19.90;99.90;;;;;;5038035;28;20030;-76
2023/08/13 07:39:40;;;;;;;3.35;0.10;;;19.90;99.90;;;;;;5038294;28;20025;-78
2023/08/13 07:42:08;;;;;;;2.58;0.00;;;20.00;99.90;;;;;;5038852;28;20045;-78
2023/08/13 07:44:34;;;;;;;;;;;20.10;99.90;;;;;;5035505;28;20104;-77
2023/08/13 07:47:00;;;;;;;3.53;0.20;;;21.00;99.90;;;;;;5034484;28;19955;-78
2023/08/13 07:49:26;;;;;;;3.20;0.15;;;20.20;99.90;;;;;;5038877;28;20033;-78
2023/08/13 07:51:52;;;;;;;3.55;0.70;;;20.20;99.90;;;;;;5036729;28;20026;-78
2023/08/13 07:54:19;;;;;;;2.42;0.35;;;20.10;99.90;;;;;;5032689;28;20422;-76
2023/08/13 07:56:45;;;;;;;4.20;0.10;;;20.30;99.90;;;;;;5034009;28;20508;-78
2023/08/13 07:59:10;;;;;;;12.90;0.95;;;20.20;99.90;;;;;;5034625;28;20028;-77
2023/08/13 08:01:36;;;;;;;5.03;0.35;;;20.30;99.90;;;;;;5034154;28;20444;-75
2023/08/13 08:04:03;;;;;;;6.18;0.47;;;20.40;99.90;;;;;;5033662;28;20048;-75
2023/08/13 08:06:29;;;;;;;6.03;0.63;;;20.50;99.90;;;;;;5033296;28;20024;-76
2023/08/13 08:08:54;;;;;;;6.50;0.50;;;20.70;99.90;;;;;;5031896;28;20029;-76
2023/08/13 08:11:20;;;;;;;6.35;0.73;;;20.60;99.90;;;;;;5033205;28;20048;-76
2023/08/13 08:13:45;;;;;;;4.95;0.22;;;20.80;99.90;;;;;;5033268;28;20104;-75
2023/08/13 08:16:11;;;;;;;4.40;0.10;;;21.00;99.90;;;;;;5033325;28;20072;-76
2023/08/13 08:18:37;;;;;;;3.53;0.65;;;21.10;99.90;;;;;;5031834;28;20018;-76
2023/08/13 08:21:02;;;;;;;2.10;0.10;;;21.10;99.90;;;;;;5033037;28;20024;-75
2023/08/13 08:23:28;;;;;;;2.03;0.10;;;21.20;99.90;;;;;;5033191;28;20065;-77
2023/08/13 08:25:53;;;;;;;3.50;0.00;;;21.70;99.90;;;;;;5032974;28;20021;-76
2023/08/13 08:28:19;;;;;;;4.25;0.75;;;21.30;99.90;;;;;;5033614;28;20097;-76
2023/08/13 08:30:44;;;;;;;4.30;0.10;;;21.40;99.90;;;;;;5033053;28;20381;-76
2023/08/13 08:33:10;;;;;;;4.95;0.00;;;21.60;99.90;;;;;;5031787;28;20477;-76
2023/08/13 08:35:36;;;;;;;4.32;0.20;;;21.70;99.90;;;;;;5035960;28;20116;-75
2023/08/13 08:38:01;;;;;;;8.18;0.85;;;21.70;99.90;;;;;;5037017;28;20508;-76
2023/08/13 08:40:27;;;;;;;4.25;0.52;;;21.70;99.90;;;;;;5036051;28;20044;-75
2023/08/13 08:42:53;;;;;;;4.05;0.00;;;21.70;99.90;;;;;;5037361;28;20025;-75
2023/08/13 08:45:21;;;;;;;2.67;0.00;;;21.60;99.90;;;;;;5036819;28;20025;-76
2023/08/13 08:47:50;;;;;;;5.50;0.57;;;21.50;99.90;;;;;;5036315;28;20481;-77
2023/08/13 08:50:19;;;;;;;4.35;0.25;;;21.60;99.90;;;;;;5037067;28;20026;-77
2023/08/13 08:52:47;;;;;;;2.85;0.70;;;21.50;99.90;;;;;;5035921;28;20056;-76
2023/08/13 08:55:12;;;;;;;1.80;0.10;;;21.60;99.90;;;;;;5037220;28;20117;-77
2023/08/13 08:57:38;;;;;;;2.42;0.28;;;21.60;99.90;;;;;;5037021;28;20497;-77
2023/08/13 09:00:05;;;;;;;5.57;0.60;;;21.70;99.90;;;;;;5037183;28;20029;-79
2023/08/13 09:02:31;;;;;;;5.28;0.10;;;21.70;99.90;;;;;;5036152;28;20030;-77
2023/08/13 09:04:57;;;;;;;1.13;0.00;;;21.80;99.90;;;;;;5037142;28;20533;-77
2023/08/13 09:07:32;;;;;;;2.53;0.00;;;21.70;99.90;;;;;;5035466;28;20136;-77
2023/08/13 09:09:57;;;;;;;2.28;0.00;;;21.60;99.90;;;;;;5036442;28;20550;-77
2023/08/13 09:12:23;;;;;;;1.75;0.22;;;21.70;99.90;;;;;;5036847;28;20021;-76
2023/08/13 09:14:55;;;;;;;1.73;0.10;;;21.70;99.90;;;;;;5037285;28;20079;-75
2023/08/13 09:17:26;;;;;;;9.48;0.47;;;21.80;99.90;;;;;;5036736;28;20045;-75
2023/08/13 09:19:51;;;;;;;4.10;0.20;;;21.90;99.90;;;;;;5036425;28;20088;-75
2023/08/13 09:22:17;;;;;;;5.63;0.63;;;22.10;99.90;;;;;;5038047;28;20026;-74
2023/08/13 09:24:46;;;;;;;2.15;0.00;;;22.10;99.90;;;;;;5036719;28;20132;-75
2023/08/13 09:27:12;;;;;;;5.82;0.65;;;22.00;99.90;;;;;;5036691;28;20048;-75
2023/08/13 09:29:41;;;;;;;4.93;0.00;;;22.00;99.90;;;;;;5036045;28;20030;-75
2023/08/13 09:32:07;;;;;;;4.03;0.30;;;21.90;99.90;;;;;;5036038;28;20071;-75
2023/08/13 09:34:35;;;;;;;2.40;0.55;;;21.90;99.90;;;;;;5036374;28;20025;-75
2023/08/13 09:37:02;;;;;;;1.55;0.20;;;21.90;99.90;;;;;;5036086;28;20519;-74
2023/08/13 09:39:30;;;;;;;4.65;0.30;;;22.00;99.90;;;;;;5035851;28;20088;-75
2023/08/13 09:41:56;;;;;;;;;;;22.10;99.90;;;;;;5036227;28;20014;-75
2023/08/13 09:44:26;;;;;;;6.25;0.63;;;22.40;99.90;;;;;;5034465;28;20364;-75
2023/08/13 09:46:59;;;;;;;6.05;0.00;;;22.30;99.90;;;;;;5033764;28;20021;-75
2023/08/13 09:49:29;;;;;;;5.75;0.00;;;22.40;99.90;;;;;;5035743;28;20037;-74
2023/08/13 09:51:59;;;;;;;5.10;0.10;;;22.50;99.90;;;;;;5036522;28;20475;-72
2023/08/13 09:54:38;;;;;;;4.68;0.10;;;22.60;99.90;;;;;;5035536;28;20026;-75
2023/08/13 09:57:07;;;;;;;9.73;0.40;;;22.60;99.90;;;;;;5035533;28;20053;-73
2023/08/13 09:59:37;;;;;;;7.05;0.10;;;22.60;99.90;;;;;;5035325;28;20040;-73
2023/08/13 10:02:11;;;;;;;5.05;0.35;;;22.50;99.90;;;;;;5035438;28;20083;-74
2023/08/13 10:04:39;;;;;;;3.63;0.47;;;22.40;99.90;;;;;;5035806;28;20528;-74
2023/08/13 10:07:05;;;;;;;;;;;22.30;99.90;;;;;;5035776;28;20026;-75
2023/08/13 10:09:32;;;;;;;8.00;0.30;;;22.20;99.90;;;;;;5035353;28;19905;-74
2023/08/13 10:11:58;;;;;;;2.50;0.08;;;22.20;99.90;;;;;;5035428;28;20038;-73
2023/08/13 10:14:24;;;;;;;3.95;0.20;;;22.20;99.90;;;;;;5035105;28;20109;-74
2023/08/13 10:16:50;;;;;;;3.33;0.20;;;22.30;99.90;;;;;;5035732;28;20104;-74
2023/08/13 10:19:17;;;;;;;6.15;0.05;;;22.40;99.90;;;;;;5035373;28;20104;-74
2023/08/13 10:21:47;;;;;;;6.07;0.70;;;22.40;99.90;;;;;;5035046;28;20028;-74
2023/08/13 10:24:13;;;;;;;6.85;0.45;;;22.50;99.90;;;;;;5036122;28;20028;-76
2023/08/13 10:26:41;;;;;;;2.90;0.45;;;22.70;99.90;;;;;;5036002;28;20022;-76
2023/08/13 10:29:15;;;;;;;3.85;0.15;;;22.80;99.90;;;;;;5034013;28;20021;-77
2023/08/13 10:31:48;;;;;;;3.95;0.45;;;22.90;99.90;;;;;;5033952;28;20029;-76
2023/08/13 10:34:16;;;;;;;8.15;0.47;;;22.80;99.90;;;;;;5034963;28;20017;-75
2023/08/13 10:36:50;;;;;;;;;;;22.80;99.90;;;;;;5035353;28;20104;-78
2023/08/13 10:39:39;;;;;;;5.82;0.52;;;22.80;99.90;;;;;;5036863;28;19913;-78
2023/08/13 10:42:36;;;;;;;13.25;0.70;;;22.80;99.90;;;;;;5035223;28;20045;-74
2023/08/13 10:45:09;;;;;;;1.55;0.00;;;22.70;99.90;;;;;;5033360;28;20025;-75
2023/08/13 10:47:55;;;;;;;5.50;0.52;;;22.80;99.90;;;;;;5034582;28;20092;-74
2023/08/13 10:50:30;;;;;;;6.45;0.30;;;22.70;99.90;;;;;;5033291;28;20097;-75
2023/08/13 10:53:10;;;;;;;4.13;0.60;;;22.40;99.90;;;;;;5034298;28;20060;-74
2023/08/13 10:55:38;;;;;;;5.20;0.70;;;22.20;99.90;;;;;;5034495;28;20083;-75
2023/08/13 10:58:04;;;;;;;4.53;0.35;;;22.00;99.90;;;;;;5033187;28;20026;-74
2023/08/13 11:00:30;;;;;;;3.88;0.32;;;22.00;99.90;;;;;;5034387;28;20025;-75
2023/08/13 11:03:17;;;;;;;4.97;0.32;;;21.90;99.90;;;;;;5032946;28;20024;-75
2023/08/13 11:05:44;;;;;;;2.65;0.45;;;22.00;99.90;;;;;;5033851;28;20444;-75
2023/08/13 11:08:16;;;;;;;7.55;0.77;;;22.10;99.90;;;;;;5033770;28;20030;-74
2023/08/13 11:10:42;;;;;;;6.32;0.30;;;22.20;99.90;;;;;;5031538;28;20033;-75
2023/08/13 11:13:10;;;;;;;7.10;0.43;;;22.00;99.90;;;;;;5034011;28;20460;-74
2023/08/13 11:15:35;;;;;;;4.00;0.28;;;21.90;99.90;;;;;;5032977;28;20088;-75
2023/08/13 11:18:01;;;;;;;6.97;0.20;;;21.70;99.90;;;;;;5033640;28;20155;-75
2023/08/13 11:20:27;;;;;;;3.05;0.30;;;21.50;99.90;;;;;;5034396;28;20071;-75
2023/08/13 11:22:52;;;;;;;2.63;0.28;;;21.40;99.90;;;;;;5033852;28;20109;-75
2023/08/13 11:25:18;;;;;;;5.90;0.65;;;21.20;99.90;;;;;;5033015;28;20122;-75
2023/08/13 11:27:44;;;;;;;4.47;0.47;;;21.10;99.90;;;;;;5034257;28;20053;-75
2023/08/13 11:30:11;;;;;;;8.02;0.30;;;21.00;99.90;;;;;;5033849;28;20037;-75
2023/08/13 11:32:37;;;;;;;3.55;0.40;;;21.10;99.90;;;;;;5033787;28;20175;-75
2023/08/13 11:35:09;;;;;;;5.35;0.85;;;21.10;99.90;;;;;;5033542;28;20032;-74
2023/08/13 11:37:36;;;;;;;7.30;0.75;;;21.10;99.90;;;;;;5033632;28;20029;-75
2023/08/13 11:40:05;;;;;;;7.85;0.80;;;21.30;99.90;;;;;;5032269;28;20018;-75
2023/08/13 11:42:31;;;;;;;7.10;0.63;;;21.40;99.90;;;;;;5033468;28;20064;-74
2023/08/13 11:44:56;;;;;;;5.35;0.40;;;21.60;99.90;;;;;;5033955;28;20480;-75
2023/08/13 11:47:28;;;;;;;5.47;0.28;;;21.80;99.90;;;;;;5033750;28;20101;-75
2023/08/13 11:49:59;;;;;;;4.70;0.43;;;21.90;99.90;;;;;;5033899;28;20056;-74
2023/08/13 11:52:24;;;;;;;1.98;0.30;;;22.30;99.90;;;;;;5033508;28;20021;-75
2023/08/13 11:54:51;;;;;;;2.83;0.10;;;22.80;99.90;;;;;;5032246;28;20025;-74
2023/08/13 11:57:18;;;;;;;7.20;0.20;;;23.30;99.90;;;;;;5033336;28;20481;-74
2023/08/13 11:59:46;;;;;;;4.20;0.50;;;23.70;99.90;;;;;;5033145;28;20029;-75
2023/08/13 12:02:13;;;;;;;6.88;0.70;;;24.10;99.90;;;;;;5033193;28;20500;-74
2023/08/13 12:04:39;;;;;;;2.95;0.10;;;24.20;99.90;;;;;;5033704;28;20025;-74
2023/08/13 12:07:09;;;;;;;8.00;0.63;;;24.40;99.90;;;;;;5033203;28;20389;-74
2023/08/13 12:09:34;;;;;;;3.03;0.00;;;24.70;99.90;;;;;;5033230;28;20029;-74
2023/08/13 12:12:00;;;;;;;4.45;0.10;;;25.00;99.90;;;;;;5031926;28;20026;-75
2023/08/13 12:14:25;;;;;;;2.95;0.20;;;24.90;99.90;;;;;;5033163;28;20520;-75
2023/08/13 12:16:51;;;;;;;2.83;0.15;;;24.70;99.90;;;;;;5033104;28;20045;-75
2023/08/13 12:19:17;;;;;;;6.63;0.38;;;24.40;99.90;;;;;;5033645;28;20022;-74
2023/08/13 12:21:42;;;;;;;4.88;0.20;;;24.20;99.90;;;;;;5033220;28;20020;-75
2023/08/13 12:24:08;;;;;;;6.22;0.22;;;23.90;99.90;;;;;;5032840;28;20549;-74
2023/08/13 12:26:34;;;;;;;1.90;0.00;;;23.80;99.90;;;;;;5033610;28;20030;-75
2023/08/13 12:29:00;;;;;;;4.65;0.22;;;23.60;99.90;;;;;;5033083;28;20028;-75
2023/08/13 12:31:26;;;;;;;4.63;0.32;;;23.40;99.90;;;;;;5033097;28;20029;-75
2023/08/13 12:33:52;;;;;;;6.40;1.30;;;23.30;99.90;;;;;;5031707;28;20025;-75
2023/08/13 12:36:18;;;;;;;5.70;0.30;;;23.20;99.90;;;;;;5033068;28;20113;-75
2023/08/13 12:38:44;;;;;;;3.25;0.10;;;23.20;99.90;;;;;;5031598;28;20022;-75
2023/08/13 12:41:11;;;;;;;5.15;0.28;;;23.20;99.90;;;;;;5033016;28;20032;-75
2023/08/13 12:43:37;;;;;;;3.13;0.20;;;24.00;99.90;;;;;;5033004;28;20095;-74
2023/08/13 12:46:06;;;;;;;5.50;0.55;;;23.10;99.90;;;;;;5032730;28;20022;-74